createdAt,value
2019-03-18T00:00:53.595Z,2.80
2019-03-18T00:03:21.897Z,2.70
2019-03-18T00:05:50.191Z,2.80
2019-03-18T00:08:18.455Z,2.70
2019-03-18T00:10:46.734Z,2.80
2019-03-18T00:13:14.990Z,2.80
2019-03-18T00:15:43.284Z,2.70
2019-03-18T00:18:11.617Z,2.80
2019-03-18T00:20:39.906Z,2.80
2019-03-18T00:23:08.175Z,2.80
2019-03-18T00:25:36.475Z,2.80
2019-03-18T00:28:04.806Z,2.80
2019-03-18T00:30:33.106Z,2.80
2019-03-18T00:33:03.196Z,2.80
2019-03-18T00:35:31.370Z,2.80
2019-03-18T00:37:59.662Z,2.80
2019-03-18T00:40:27.998Z,2.80
2019-03-18T00:42:56.308Z,2.80
2019-03-18T00:45:24.578Z,2.80
2019-03-18T00:47:52.865Z,2.80
2019-03-18T00:50:21.115Z,2.80
2019-03-18T00:52:49.494Z,2.80
2019-03-18T00:55:17.752Z,2.70
2019-03-18T00:57:46.031Z,2.70
2019-03-18T01:00:15.581Z,2.70
2019-03-18T01:02:43.929Z,2.70
2019-03-18T01:05:12.254Z,2.80
2019-03-18T01:07:40.586Z,2.80
2019-03-18T01:10:13.797Z,2.80
2019-03-18T01:12:42.118Z,2.90
2019-03-18T01:15:11.178Z,2.90
2019-03-18T01:17:39.457Z,2.90
2019-03-18T01:20:09.268Z,2.90
2019-03-18T01:22:37.554Z,2.90
2019-03-18T01:25:07.060Z,2.90
2019-03-18T01:27:35.346Z,2.90
2019-03-18T01:30:04.263Z,2.90
2019-03-18T01:32:32.629Z,3.00
2019-03-18T01:35:00.874Z,3.00
2019-03-18T01:37:29.130Z,3.00
2019-03-18T01:39:57.438Z,3.10
2019-03-18T01:42:25.684Z,3.10
2019-03-18T01:44:54.003Z,3.10
2019-03-18T01:47:22.249Z,3.10
2019-03-18T01:49:50.557Z,3.10
2019-03-18T01:52:18.880Z,3.10
2019-03-18T01:54:47.175Z,3.10
2019-03-18T01:57:15.475Z,3.10
2019-03-18T01:59:43.797Z,3.10
2019-03-18T02:02:12.065Z,3.20
2019-03-18T02:04:40.417Z,3.20
2019-03-18T02:07:08.751Z,3.20
2019-03-18T02:09:37.037Z,3.20
2019-03-18T02:12:05.302Z,3.20
2019-03-18T02:14:33.579Z,3.30
2019-03-18T02:17:01.855Z,3.20
2019-03-18T02:19:30.138Z,3.30
2019-03-18T02:21:58.394Z,3.30
2019-03-18T02:24:26.637Z,3.30
2019-03-18T02:26:54.919Z,3.20
2019-03-18T02:29:23.183Z,3.20
2019-03-18T02:31:51.520Z,3.20
2019-03-18T02:34:19.871Z,3.20
2019-03-18T02:36:48.107Z,3.20
2019-03-18T02:39:16.345Z,3.20
2019-03-18T02:41:44.714Z,3.20
2019-03-18T02:44:13.153Z,3.20
2019-03-18T02:46:41.450Z,3.10
2019-03-18T02:49:09.692Z,3.20
2019-03-18T02:51:38.016Z,3.10
2019-03-18T02:54:06.313Z,3.10
2019-03-18T02:56:34.669Z,3.10
2019-03-18T02:59:02.948Z,3.10
2019-03-18T03:01:31.291Z,3.10
2019-03-18T03:03:59.570Z,3.00
2019-03-18T03:06:30.799Z,3.10
2019-03-18T03:08:59.071Z,3.10
2019-03-18T03:11:27.340Z,3.00
2019-03-18T03:13:55.604Z,3.00
2019-03-18T03:16:26.852Z,3.00
2019-03-18T03:18:53.938Z,3.00
2019-03-18T03:21:22.238Z,3.00
2019-03-18T03:23:50.493Z,3.00
2019-03-18T03:26:18.764Z,3.10
2019-03-18T03:28:47.025Z,3.10
2019-03-18T03:31:15.309Z,3.10
2019-03-18T03:33:43.643Z,3.10
2019-03-18T03:36:11.980Z,3.20
2019-03-18T03:38:40.234Z,3.20
2019-03-18T03:41:08.508Z,3.20
2019-03-18T03:43:36.806Z,3.20
2019-03-18T03:46:05.126Z,3.20
2019-03-18T03:48:33.488Z,3.20
2019-03-18T03:51:01.737Z,3.20
2019-03-18T03:53:31.106Z,3.30
2019-03-18T03:55:59.539Z,3.30
2019-03-18T03:58:27.946Z,3.30
2019-03-18T04:00:56.275Z,3.30
2019-03-18T04:03:37.764Z,3.30
2019-03-18T04:05:54.629Z,3.30
2019-03-18T04:08:22.910Z,3.30
2019-03-18T04:10:51.230Z,3.30
2019-03-18T04:13:19.597Z,3.30
2019-03-18T04:15:47.938Z,3.20
2019-03-18T04:18:16.281Z,3.10
2019-03-18T04:20:44.600Z,3.00
2019-03-18T04:23:12.904Z,2.80
2019-03-18T04:25:41.235Z,2.70
2019-03-18T04:28:09.552Z,2.50
2019-03-18T04:30:37.823Z,2.40
2019-03-18T04:33:06.085Z,2.30
2019-03-18T04:35:34.432Z,2.30
2019-03-18T04:38:02.722Z,2.30
2019-03-18T04:40:31.008Z,2.20
2019-03-18T04:42:59.268Z,2.20
2019-03-18T04:45:27.572Z,2.30
2019-03-18T04:47:55.826Z,2.30
2019-03-18T04:50:24.123Z,2.30
2019-03-18T04:52:52.387Z,2.30
2019-03-18T04:55:20.665Z,2.30
2019-03-18T04:57:48.930Z,2.30
2019-03-18T05:00:17.235Z,2.40
2019-03-18T05:02:45.591Z,2.40
2019-03-18T05:05:13.884Z,2.40
2019-03-18T05:07:42.138Z,2.50
2019-03-18T05:10:10.985Z,2.40
2019-03-18T05:12:39.278Z,2.40
2019-03-18T05:15:09.067Z,2.40
2019-03-18T05:17:37.328Z,2.40
2019-03-18T05:20:08.238Z,2.40
2019-03-18T05:22:36.519Z,2.40
2019-03-18T05:25:06.290Z,2.40
2019-03-18T05:27:34.561Z,2.40
2019-03-18T05:30:03.868Z,2.30
2019-03-18T05:32:32.202Z,2.40
2019-03-18T05:35:00.580Z,2.40
2019-03-18T05:37:28.944Z,2.40
2019-03-18T05:39:57.222Z,2.40
2019-03-18T05:42:25.491Z,2.40
2019-03-18T05:44:53.773Z,2.40
2019-03-18T05:47:22.054Z,2.40
2019-03-18T05:49:50.327Z,2.40
2019-03-18T05:52:18.672Z,2.40
2019-03-18T05:54:47.007Z,2.40
2019-03-18T05:57:15.303Z,2.40
2019-03-18T05:59:43.578Z,2.50
2019-03-18T06:02:11.991Z,2.50
2019-03-18T06:04:40.262Z,2.50
2019-03-18T06:07:08.551Z,2.50
2019-03-18T06:09:36.858Z,2.50
2019-03-18T06:12:05.141Z,2.50
2019-03-18T06:14:33.411Z,2.50
2019-03-18T06:17:01.666Z,2.60
2019-03-18T06:19:29.983Z,2.60
2019-03-18T06:21:58.332Z,2.60
2019-03-18T06:24:26.614Z,2.60
2019-03-18T06:26:54.887Z,2.70
2019-03-18T06:29:23.173Z,2.70
2019-03-18T06:31:51.521Z,2.70
2019-03-18T06:34:19.922Z,2.80
2019-03-18T06:36:48.221Z,2.80
2019-03-18T06:39:16.519Z,2.80
2019-03-18T06:41:45.457Z,2.80
2019-03-18T06:44:14.067Z,2.80
2019-03-18T06:46:42.655Z,2.80
2019-03-18T06:49:11.076Z,2.80
2019-03-18T06:51:39.358Z,2.80
2019-03-18T06:54:07.713Z,2.80
2019-03-18T06:56:36.096Z,2.80
2019-03-18T06:59:04.766Z,2.90
2019-03-18T07:01:33.107Z,2.90
2019-03-18T07:04:03.443Z,3.00
2019-03-18T07:06:32.850Z,2.90
2019-03-18T07:09:02.982Z,3.00
2019-03-18T07:11:31.792Z,3.00
2019-03-18T07:14:00.280Z,3.00
2019-03-18T07:16:30.077Z,3.00
2019-03-18T07:18:58.541Z,3.00
2019-03-18T07:21:26.867Z,2.90
2019-03-18T07:23:55.202Z,2.90
2019-03-18T07:26:23.475Z,2.90
2019-03-18T07:28:51.938Z,2.90
2019-03-18T07:31:20.386Z,2.80
2019-03-18T07:33:48.938Z,2.70
2019-03-18T07:36:17.243Z,2.80
2019-03-18T07:38:45.607Z,2.70
2019-03-18T07:41:13.962Z,2.80
2019-03-18T07:43:42.288Z,2.80
2019-03-18T07:46:10.600Z,2.80
2019-03-18T07:48:38.856Z,2.80
2019-03-18T07:51:07.138Z,2.90
2019-03-18T07:53:35.421Z,3.00
2019-03-18T07:56:03.759Z,3.10
2019-03-18T07:58:32.129Z,3.10
2019-03-18T08:01:00.540Z,3.20
2019-03-18T08:03:28.981Z,3.30
2019-03-18T08:05:57.266Z,3.30
2019-03-18T08:08:25.591Z,3.30
2019-03-18T08:10:53.912Z,3.30
2019-03-18T08:13:22.228Z,5.60
2019-03-18T08:15:50.538Z,3.20
2019-03-18T08:18:18.857Z,3.10
2019-03-18T08:20:47.122Z,3.10
2019-03-18T08:23:15.412Z,3.20
2019-03-18T08:25:43.683Z,3.20
2019-03-18T08:28:11.988Z,3.40
2019-03-18T08:30:40.281Z,3.50
2019-03-18T08:33:08.713Z,3.60
2019-03-18T08:35:36.968Z,3.70
2019-03-18T08:38:05.361Z,3.80
2019-03-18T08:40:33.691Z,3.80
2019-03-18T08:43:02.005Z,3.90
2019-03-18T08:45:30.303Z,3.90
2019-03-18T08:47:58.618Z,3.90
2019-03-18T08:50:26.940Z,3.90
2019-03-18T08:52:55.260Z,4.00
2019-03-18T08:55:23.551Z,4.00
2019-03-18T08:57:51.830Z,4.10
2019-03-18T09:00:20.307Z,4.10
2019-03-18T09:02:48.557Z,4.10
2019-03-18T09:05:16.847Z,4.20
2019-03-18T09:07:45.146Z,4.30
2019-03-18T09:10:14.555Z,4.30
2019-03-18T09:12:42.819Z,4.30
2019-03-18T09:15:11.543Z,4.40
2019-03-18T09:17:39.798Z,4.50
2019-03-18T09:20:13.424Z,4.60
2019-03-18T09:22:41.682Z,4.50
2019-03-18T09:25:10.782Z,4.60
2019-03-18T09:27:39.050Z,4.70
2019-03-18T09:30:18.457Z,5.10
2019-03-18T09:32:46.761Z,5.40
2019-03-18T09:35:15.067Z,5.90
2019-03-18T09:37:43.326Z,6.30
2019-03-18T09:40:13.882Z,6.60
2019-03-18T09:42:42.142Z,6.80
2019-03-18T09:45:13.686Z,9.70
2019-03-18T09:47:41.957Z,6.60
2019-03-18T09:50:11.083Z,6.40
2019-03-18T09:52:39.388Z,6.70
2019-03-18T09:55:08.303Z,6.80
2019-03-18T09:57:36.625Z,6.70
2019-03-18T10:00:08.026Z,6.60
2019-03-18T10:02:36.328Z,6.40
2019-03-18T10:05:06.196Z,6.20
2019-03-18T10:07:34.545Z,6.20
2019-03-18T10:10:03.754Z,6.10
2019-03-18T10:12:32.051Z,6.10
2019-03-18T10:15:00.460Z,6.40
2019-03-18T10:17:28.962Z,6.40
2019-03-18T10:19:57.231Z,6.50
2019-03-18T10:22:25.523Z,6.70
2019-03-18T10:24:53.798Z,7.00
2019-03-18T10:27:22.103Z,7.20
2019-03-18T10:29:50.355Z,7.20
2019-03-18T10:32:18.639Z,7.10
2019-03-18T10:34:46.912Z,7.20
2019-03-18T10:37:15.201Z,7.50
2019-03-18T10:39:43.553Z,8.00
2019-03-18T10:42:11.934Z,8.30
2019-03-18T10:44:40.271Z,8.40
2019-03-18T10:47:08.537Z,9.30
2019-03-18T10:49:45.653Z,9.50
2019-03-18T10:52:06.849Z,9.10
2019-03-18T10:54:35.184Z,8.60
2019-03-18T10:57:03.498Z,8.30
2019-03-18T10:59:31.844Z,7.90
2019-03-18T11:02:00.123Z,11.10
2019-03-18T11:04:28.413Z,7.20
2019-03-18T11:06:56.648Z,7.20
2019-03-18T11:09:24.931Z,7.30
2019-03-18T11:11:53.205Z,7.30
2019-03-18T11:14:21.495Z,7.50
2019-03-18T11:16:52.381Z,7.80
2019-03-18T11:19:19.876Z,8.30
2019-03-18T11:21:48.132Z,8.50
2019-03-18T11:24:16.455Z,8.30
2019-03-18T11:26:44.790Z,7.70
2019-03-18T11:29:13.100Z,6.80
2019-03-18T11:31:41.424Z,6.90
2019-03-18T11:34:09.705Z,7.20
2019-03-18T11:36:37.963Z,7.00
2019-03-18T11:39:06.880Z,6.80
2019-03-18T11:41:35.148Z,6.80
2019-03-18T11:44:03.434Z,6.60
2019-03-18T11:46:31.861Z,6.40
2019-03-18T11:49:00.172Z,6.20
2019-03-18T11:51:28.489Z,6.90
2019-03-18T11:53:56.773Z,8.00
2019-03-18T11:56:25.071Z,9.10
2019-03-18T11:58:53.331Z,9.80
2019-03-18T12:01:21.655Z,11.00
2019-03-18T12:03:49.976Z,11.70
2019-03-18T12:06:18.292Z,12.30
2019-03-18T12:08:46.561Z,12.70
2019-03-18T12:11:14.850Z,11.80
2019-03-18T12:13:43.148Z,11.50
2019-03-18T12:16:11.458Z,10.80
2019-03-18T12:18:39.782Z,10.50
2019-03-18T12:21:08.086Z,9.60
2019-03-18T12:23:36.364Z,9.30
2019-03-18T12:26:04.644Z,9.00
2019-03-18T12:28:32.914Z,8.90
2019-03-18T12:31:01.264Z,8.90
2019-03-18T12:33:29.517Z,8.90
2019-03-18T12:35:57.832Z,8.80
2019-03-18T12:38:26.100Z,8.70
2019-03-18T12:40:54.353Z,8.50
2019-03-18T12:43:22.617Z,8.30
2019-03-18T12:45:50.902Z,8.10
2019-03-18T12:48:19.246Z,7.90
2019-03-18T12:50:55.938Z,7.80
2019-03-18T12:53:17.633Z,7.90
2019-03-18T12:55:46.030Z,8.20
2019-03-18T12:58:14.376Z,8.60
2019-03-18T13:00:42.731Z,8.70
2019-03-18T13:03:11.152Z,8.60
2019-03-18T13:05:39.435Z,8.30
2019-03-18T13:08:07.759Z,8.30
2019-03-18T13:10:36.067Z,9.00
2019-03-18T13:13:04.376Z,9.30
2019-03-18T13:15:32.636Z,9.10
2019-03-18T13:18:00.956Z,8.90
2019-03-18T13:20:29.228Z,9.00
2019-03-18T13:22:57.526Z,10.40
2019-03-18T13:25:25.795Z,11.40
2019-03-18T13:27:54.094Z,11.50
2019-03-18T13:30:23.682Z,11.10
2019-03-18T13:32:52.038Z,10.70
2019-03-18T13:35:20.382Z,10.10
2019-03-18T13:37:48.648Z,9.50
2019-03-18T13:40:19.805Z,8.80
2019-03-18T13:42:48.069Z,7.70
2019-03-18T13:45:19.707Z,6.40
2019-03-18T13:47:48.112Z,5.60
2019-03-18T13:50:18.649Z,5.00
2019-03-18T13:52:46.899Z,4.80
2019-03-18T13:55:15.194Z,5.10
2019-03-18T13:57:43.455Z,5.70
2019-03-18T14:00:15.585Z,7.00
2019-03-18T14:02:43.841Z,8.60
2019-03-18T14:05:12.132Z,10.10
2019-03-18T14:07:40.398Z,11.30
2019-03-18T14:10:17.985Z,12.10
2019-03-18T14:12:46.387Z,12.60
2019-03-18T14:15:17.029Z,11.90
2019-03-18T14:17:45.361Z,12.30
2019-03-18T14:20:22.866Z,12.40
2019-03-18T14:22:51.137Z,13.70
2019-03-18T14:25:19.438Z,14.40
2019-03-18T14:27:47.691Z,15.10
2019-03-18T14:30:18.106Z,15.40
2019-03-18T14:32:46.395Z,15.60
2019-03-18T14:35:14.685Z,15.90
2019-03-18T14:37:42.989Z,15.60
2019-03-18T14:40:17.328Z,15.30
2019-03-18T14:42:45.602Z,15.10
2019-03-18T14:45:15.901Z,14.70
2019-03-18T14:47:44.217Z,14.00
2019-03-18T14:50:13.730Z,14.20
2019-03-18T14:52:42.042Z,14.30
2019-03-18T14:55:12.264Z,13.70
2019-03-18T14:57:40.574Z,13.10
2019-03-18T15:00:17.584Z,12.10
2019-03-18T15:02:45.947Z,11.60
2019-03-18T15:05:15.164Z,11.10
2019-03-18T15:07:43.562Z,10.80
2019-03-18T15:10:16.699Z,10.40
2019-03-18T15:12:44.986Z,9.80
2019-03-18T15:15:18.396Z,9.40
2019-03-18T15:17:46.727Z,9.00
2019-03-18T15:20:21.658Z,8.70
2019-03-18T15:22:50.107Z,8.50
2019-03-18T15:25:23.641Z,8.40
2019-03-18T15:27:51.960Z,8.40
2019-03-18T15:30:20.493Z,8.40
2019-03-18T15:32:48.779Z,8.90
2019-03-18T15:35:17.728Z,10.40
2019-03-18T15:37:46.061Z,11.30
2019-03-18T15:40:19.310Z,12.20
2019-03-18T15:42:47.684Z,13.40
2019-03-18T15:45:17.617Z,14.00
2019-03-18T15:47:45.912Z,14.40
2019-03-18T15:50:18.827Z,13.30
2019-03-18T15:52:47.158Z,11.90
2019-03-18T15:55:15.446Z,10.80
2019-03-18T15:57:43.894Z,9.80
2019-03-18T16:00:28.333Z,9.10
2019-03-18T16:02:56.637Z,8.70
2019-03-18T16:05:24.994Z,8.30
2019-03-18T16:07:53.317Z,8.10
2019-03-18T16:10:21.572Z,8.00
2019-03-18T16:12:49.951Z,7.90
2019-03-18T16:15:18.500Z,7.80
2019-03-18T16:17:46.834Z,7.90
2019-03-18T16:20:26.101Z,7.80
2019-03-18T16:22:54.368Z,7.50
2019-03-18T16:25:22.729Z,7.40
2019-03-18T16:27:51.042Z,7.30
2019-03-18T16:30:20.380Z,7.20
2019-03-18T16:32:48.632Z,7.10
2019-03-18T16:35:17.420Z,6.90
2019-03-18T16:37:45.828Z,6.70
2019-03-18T16:40:21.842Z,6.60
2019-03-18T16:42:50.187Z,6.50
2019-03-18T16:45:19.136Z,6.20
2019-03-18T16:47:47.382Z,6.10
2019-03-18T16:50:31.896Z,6.10
2019-03-18T16:53:00.170Z,6.00
2019-03-18T16:55:28.447Z,6.00
2019-03-18T16:57:56.747Z,5.90
2019-03-18T17:00:25.997Z,5.90
2019-03-18T17:02:54.359Z,5.80
2019-03-18T17:05:22.863Z,8.20
2019-03-18T17:07:54.086Z,5.70
2019-03-18T17:10:21.222Z,5.60
2019-03-18T17:12:49.612Z,5.60
2019-03-18T17:15:21.411Z,5.60
2019-03-18T17:17:49.786Z,5.60
2019-03-18T17:20:18.107Z,5.50
2019-03-18T17:22:50.351Z,5.50
2019-03-18T17:25:27.271Z,5.50
2019-03-18T17:27:55.667Z,5.40
2019-03-18T17:30:26.430Z,5.40
2019-03-18T17:32:54.028Z,5.30
2019-03-18T17:35:23.794Z,5.30
2019-03-18T17:37:52.281Z,5.30
2019-03-18T17:40:21.817Z,5.30
2019-03-18T17:42:50.547Z,5.20
2019-03-18T17:45:19.099Z,5.30
2019-03-18T17:47:47.466Z,5.30
2019-03-18T17:50:24.323Z,5.20
2019-03-18T17:53:02.508Z,5.10
2019-03-18T17:55:22.673Z,5.10
2019-03-18T17:57:51.116Z,5.00
2019-03-18T18:00:23.713Z,5.00
2019-03-18T18:02:52.940Z,4.90
2019-03-18T18:05:21.358Z,4.90
2019-03-18T18:07:49.632Z,4.80
2019-03-18T18:10:17.927Z,4.80
2019-03-18T18:12:46.258Z,4.70
2019-03-18T18:15:14.631Z,4.80
2019-03-18T18:17:42.904Z,4.70
2019-03-18T18:20:14.986Z,4.70
2019-03-18T18:22:43.285Z,4.70
2019-03-18T18:25:12.646Z,4.70
2019-03-18T18:27:40.937Z,4.70
2019-03-18T18:30:18.833Z,4.60
2019-03-18T18:32:47.155Z,4.60
2019-03-18T18:35:15.445Z,4.50
2019-03-18T18:37:43.820Z,4.50
2019-03-18T18:40:17.512Z,4.40
2019-03-18T18:42:45.780Z,4.40
2019-03-18T18:45:14.110Z,4.40
2019-03-18T18:47:42.510Z,4.30
2019-03-18T18:50:11.827Z,4.20
2019-03-18T18:52:40.120Z,4.20
2019-03-18T18:55:10.509Z,4.10
2019-03-18T18:57:38.776Z,4.10
2019-03-18T19:00:15.427Z,4.00
2019-03-18T19:02:43.734Z,4.00
2019-03-18T19:05:13.688Z,3.90
2019-03-18T19:07:42.025Z,3.80
2019-03-18T19:10:18.150Z,3.70
2019-03-18T19:12:46.501Z,3.70
2019-03-18T19:15:17.767Z,3.60
2019-03-18T19:17:46.111Z,3.50
2019-03-18T19:20:14.672Z,3.50
2019-03-18T19:22:42.924Z,3.40
2019-03-18T19:25:13.317Z,3.30
2019-03-18T19:27:41.677Z,3.30
2019-03-18T19:30:19.690Z,3.20
2019-03-18T19:32:48.209Z,3.10
2019-03-18T19:35:16.472Z,3.10
2019-03-18T19:37:44.893Z,3.10
2019-03-18T19:40:17.260Z,3.10
2019-03-18T19:42:45.576Z,3.10
2019-03-18T19:45:14.232Z,3.20
2019-03-18T19:47:42.584Z,3.20
2019-03-18T19:50:22.042Z,3.20
2019-03-18T19:52:50.437Z,3.20
2019-03-18T19:55:18.757Z,3.20
2019-03-18T19:57:47.934Z,3.20
2019-03-18T20:00:23.280Z,3.20
2019-03-18T20:02:51.721Z,3.20
2019-03-18T20:05:20.046Z,3.20
2019-03-18T20:07:48.355Z,3.30
2019-03-18T20:10:20.860Z,3.20
2019-03-18T20:12:49.317Z,3.20
2019-03-18T20:15:18.318Z,3.20
2019-03-18T20:17:46.679Z,3.20
2019-03-18T20:20:15.915Z,3.20
2019-03-18T20:22:44.318Z,3.10
2019-03-18T20:25:13.737Z,3.00
2019-03-18T20:27:42.061Z,2.90
2019-03-18T20:30:19.476Z,2.90
2019-03-18T20:32:47.855Z,2.80
2019-03-18T20:35:21.218Z,2.70
2019-03-18T20:37:51.651Z,2.70
2019-03-18T20:40:19.507Z,2.60
2019-03-18T20:42:47.825Z,2.60
2019-03-18T20:45:22.438Z,2.60
2019-03-18T20:47:50.746Z,5.60
2019-03-18T20:50:22.884Z,2.40
2019-03-18T20:52:51.238Z,2.30
2019-03-18T20:55:19.673Z,2.20
2019-03-18T20:57:47.959Z,2.10
2019-03-18T21:00:19.831Z,2.00
2019-03-18T21:02:48.102Z,2.00
2019-03-18T21:05:16.406Z,1.90
2019-03-18T21:07:44.730Z,1.80
2019-03-18T21:10:19.642Z,1.80
2019-03-18T21:12:47.914Z,1.70
2019-03-18T21:15:16.862Z,1.60
2019-03-18T21:17:45.167Z,1.60
2019-03-18T21:20:22.695Z,1.50
2019-03-18T21:22:51.091Z,1.40
2019-03-18T21:25:19.481Z,1.40
2019-03-18T21:27:47.817Z,1.40
2019-03-18T21:30:18.575Z,1.30
2019-03-18T21:32:46.835Z,1.20
2019-03-18T21:35:15.262Z,1.20
2019-03-18T21:37:43.539Z,1.20
2019-03-18T21:40:16.777Z,1.10
2019-03-18T21:42:45.174Z,1.10
2019-03-18T21:45:23.617Z,1.00
2019-03-18T21:47:52.371Z,1.00
2019-03-18T21:50:20.746Z,0.90
2019-03-18T21:52:49.056Z,0.90
2019-03-18T21:55:17.353Z,0.80
2019-03-18T21:57:45.721Z,0.80
2019-03-18T22:00:17.835Z,0.70
2019-03-18T22:02:46.136Z,0.70
2019-03-18T22:05:14.635Z,0.70
2019-03-18T22:07:43.030Z,0.60
2019-03-18T22:10:16.525Z,0.60
2019-03-18T22:12:44.812Z,0.60
2019-03-18T22:15:13.915Z,0.50
2019-03-18T22:17:42.250Z,0.50
2019-03-18T22:20:12.563Z,0.40
2019-03-18T22:22:40.871Z,0.40
2019-03-18T22:25:10.869Z,0.40
2019-03-18T22:27:39.197Z,0.30
2019-03-18T22:30:12.950Z,0.30
2019-03-18T22:32:41.514Z,0.30
2019-03-18T22:35:10.119Z,0.20
2019-03-18T22:37:38.431Z,0.20
2019-03-18T22:40:12.507Z,0.20
2019-03-18T22:42:40.798Z,0.10
2019-03-18T22:45:11.006Z,0.10
2019-03-18T22:47:39.299Z,0.10
2019-03-18T22:50:09.209Z,0.00
2019-03-18T22:52:37.503Z,0.00
2019-03-18T22:55:09.013Z,0.00
2019-03-18T22:57:37.306Z,-0.10
2019-03-18T23:00:10.556Z,-0.10
2019-03-18T23:02:38.854Z,-0.10
2019-03-18T23:05:07.792Z,-0.20
2019-03-18T23:07:36.047Z,-0.20
2019-03-18T23:10:06.491Z,-0.20
2019-03-18T23:12:34.804Z,-0.20
2019-03-18T23:15:03.555Z,-0.20
2019-03-18T23:17:31.847Z,-0.30
2019-03-18T23:20:00.310Z,-0.30
2019-03-18T23:22:28.604Z,-0.30
2019-03-18T23:25:06.554Z,-0.30
2019-03-18T23:27:26.890Z,-0.30
2019-03-18T23:29:55.188Z,-0.30
2019-03-18T23:32:23.455Z,-0.30
2019-03-18T23:34:51.752Z,-0.20
2019-03-18T23:37:20.010Z,-0.20
2019-03-18T23:39:48.376Z,-0.20
2019-03-18T23:42:16.761Z,-0.20
2019-03-18T23:44:45.031Z,-0.20
2019-03-18T23:47:13.453Z,-0.20
2019-03-18T23:49:41.706Z,-0.20
2019-03-18T23:52:10.071Z,-0.20
2019-03-18T23:54:38.351Z,-0.20
2019-03-18T23:57:06.681Z,-0.30
2019-03-18T23:59:35.076Z,-0.20
